createdAt,value
2022-12-07T00:01:40.787Z,100802.66
2022-12-07T00:04:11.979Z,100804.59
2022-12-07T00:06:41.411Z,100794.44
2022-12-07T00:09:12.513Z,100790.97
2022-12-07T00:11:40.721Z,100791.88
2022-12-07T00:14:12.265Z,100791.88
2022-12-07T00:16:42.016Z,100790.75
2022-12-07T00:19:13.331Z,100792.22
2022-12-07T00:21:41.599Z,100793.75
2022-12-07T00:24:09.899Z,100792.81
2022-12-07T00:26:40.150Z,100784.19
2022-12-07T00:29:13.779Z,100785.13
2022-12-07T00:31:43.318Z,100790.34
2022-12-07T00:34:15.755Z,100789.50
2022-12-07T00:36:44.225Z,100785.22
2022-12-07T00:39:12.634Z,100782.78
2022-12-07T00:41:40.919Z,100781.03
2022-12-07T00:44:08.995Z,100779.31
2022-12-07T00:46:37.226Z,100785.34
2022-12-07T00:49:06.697Z,100785.97
2022-12-07T00:51:34.864Z,100786.03
2022-12-07T00:54:02.911Z,100793.19
2022-12-07T00:56:31.823Z,100788.19
2022-12-07T00:59:01.486Z,100791.66
2022-12-07T01:01:31.504Z,100783.72
2022-12-07T01:04:02.254Z,100784.44
2022-12-07T01:06:32.654Z,100781.88
2022-12-07T01:09:01.404Z,100782.72
2022-12-07T01:11:31.410Z,100784.47
2022-12-07T01:14:01.286Z,100784.59
2022-12-07T01:16:31.857Z,100775.13
2022-12-07T01:19:01.455Z,100770.03
2022-12-07T01:21:35.679Z,100767.44
2022-12-07T01:24:04.590Z,100767.50
2022-12-07T01:26:33.050Z,100766.53
2022-12-07T01:29:01.904Z,100769.94
2022-12-07T01:31:30.648Z,100763.09
2022-12-07T01:34:01.134Z,100768.47
2022-12-07T01:36:32.404Z,100767.53
2022-12-07T01:39:02.455Z,100762.44
2022-12-07T01:41:34.312Z,100771.09
2022-12-07T01:44:22.801Z,100776.25
2022-12-07T01:46:52.285Z,100777.19
2022-12-07T01:49:27.177Z,100776.44
2022-12-07T01:52:03.024Z,100775.66
2022-12-07T01:54:31.252Z,100776.63
2022-12-07T01:57:00.447Z,100772.47
2022-12-07T01:59:28.784Z,100774.28
2022-12-07T02:01:58.272Z,100770.00
2022-12-07T02:04:26.815Z,100774.31
2022-12-07T02:06:57.916Z,100768.22
2022-12-07T02:09:26.066Z,100764.81
2022-12-07T02:11:57.164Z,100764.75
2022-12-07T02:14:25.416Z,100768.97
2022-12-07T02:17:07.484Z,100765.47
2022-12-07T02:20:06.688Z,100767.94
2022-12-07T02:23:02.535Z,100766.03
2022-12-07T02:25:47.005Z,100765.78
2022-12-07T02:28:29.111Z,100765.72
2022-12-07T02:31:05.019Z,100768.09
2022-12-07T02:33:38.779Z,100754.28
2022-12-07T02:36:11.514Z,100762.09
2022-12-07T02:38:45.866Z,100769.81
2022-12-07T02:41:20.030Z,100770.53
2022-12-07T02:43:52.994Z,100768.50
2022-12-07T02:46:26.063Z,100766.50
2022-12-07T02:48:55.507Z,100764.72
2022-12-07T02:51:24.265Z,100768.22
2022-12-07T02:53:52.436Z,100758.81
2022-12-07T02:56:31.311Z,100752.75
2022-12-07T02:59:10.003Z,100751.91
2022-12-07T03:01:52.072Z,100753.41
2022-12-07T03:04:39.894Z,100750.66
2022-12-07T03:07:18.027Z,100748.09
2022-12-07T03:09:53.493Z,100738.72
2022-12-07T03:12:29.009Z,100748.09
2022-12-07T03:15:02.444Z,100740.28
2022-12-07T03:17:36.616Z,100734.19
2022-12-07T03:20:08.774Z,100732.31
2022-12-07T03:22:41.025Z,100738.34
2022-12-07T03:25:13.173Z,100733.00
2022-12-07T03:27:47.026Z,100735.50
2022-12-07T03:30:19.375Z,100741.53
2022-12-07T03:32:54.803Z,100733.13
2022-12-07T03:35:27.967Z,100739.88
2022-12-07T03:37:59.985Z,100737.19
2022-12-07T03:40:33.063Z,100738.78
2022-12-07T03:43:03.637Z,100749.94
2022-12-07T03:45:39.194Z,100738.00
2022-12-07T03:48:17.972Z,100744.06
2022-12-07T03:50:53.537Z,100740.53
2022-12-07T03:53:26.737Z,100738.75
2022-12-07T03:55:56.564Z,100736.19
2022-12-07T03:58:26.333Z,100736.16
2022-12-07T04:00:54.584Z,100738.72
2022-12-07T04:03:24.047Z,100736.28
2022-12-07T04:05:52.344Z,100726.13
2022-12-07T04:08:20.509Z,100725.31
2022-12-07T04:10:48.705Z,100726.75
2022-12-07T04:13:16.795Z,100725.72
2022-12-07T04:15:45.032Z,100713.78
2022-12-07T04:18:13.190Z,100720.84
2022-12-07T04:20:42.624Z,100723.41
2022-12-07T04:23:10.796Z,100725.94
2022-12-07T04:25:38.984Z,100726.00
2022-12-07T04:28:07.126Z,100716.53
2022-12-07T04:30:35.264Z,100713.81
2022-12-07T04:33:03.353Z,100719.78
2022-12-07T04:35:31.574Z,100708.63
2022-12-07T04:38:00.923Z,100705.03
2022-12-07T04:40:29.076Z,100707.19
2022-12-07T04:42:57.188Z,100714.06
2022-12-07T04:45:25.343Z,100711.66
2022-12-07T04:47:53.414Z,100707.38
2022-12-07T04:50:21.521Z,100710.81
2022-12-07T04:52:49.623Z,100703.97
2022-12-07T04:55:19.183Z,100701.34
2022-12-07T04:57:47.304Z,100695.97
2022-12-07T05:00:15.641Z,100710.50
2022-12-07T05:02:43.736Z,100714.94
2022-12-07T05:05:11.927Z,100710.72
2022-12-07T05:07:40.181Z,100711.50
2022-12-07T05:10:09.259Z,100711.59
2022-12-07T05:12:38.714Z,100706.50
2022-12-07T05:15:07.564Z,100712.63
2022-12-07T05:17:35.723Z,100706.78
2022-12-07T05:20:04.518Z,100702.38
2022-12-07T05:22:32.953Z,100694.47
2022-12-07T05:25:01.075Z,100697.84
2022-12-07T05:27:29.195Z,100691.06
2022-12-07T05:29:58.731Z,100684.22
2022-12-07T05:32:26.913Z,100685.97
2022-12-07T05:34:55.859Z,100687.81
2022-12-07T05:37:23.977Z,100682.44
2022-12-07T05:39:52.134Z,100687.53
2022-12-07T05:42:20.294Z,100695.16
2022-12-07T05:44:48.966Z,100695.00
2022-12-07T05:47:18.730Z,100693.88
2022-12-07T05:49:47.062Z,100687.97
2022-12-07T05:52:15.185Z,100693.34
2022-12-07T05:54:43.468Z,100697.72
2022-12-07T05:57:11.704Z,100693.53
2022-12-07T05:59:38.931Z,100695.16
2022-12-07T06:02:09.005Z,100692.56
2022-12-07T06:04:41.754Z,100689.13
2022-12-07T06:07:11.066Z,100694.25
2022-12-07T06:09:39.903Z,100690.59
2022-12-07T06:12:26.139Z,100690.41
2022-12-07T06:14:54.305Z,100692.16
2022-12-07T06:17:22.533Z,100689.56
2022-12-07T06:19:52.024Z,100690.59
2022-12-07T06:22:20.261Z,100693.97
2022-12-07T06:24:48.452Z,100684.19
2022-12-07T06:27:16.644Z,100683.25
2022-12-07T06:29:44.775Z,100697.28
2022-12-07T06:32:13.246Z,100688.47
2022-12-07T06:34:41.628Z,100687.66
2022-12-07T06:37:11.115Z,100697.38
2022-12-07T06:39:39.913Z,100695.84
2022-12-07T06:42:08.113Z,100697.69
2022-12-07T06:44:36.285Z,100701.19
2022-12-07T06:47:38.917Z,100697.00
2022-12-07T06:49:53.900Z,100685.91
2022-12-07T06:52:23.405Z,100684.97
2022-12-07T06:54:51.590Z,100686.56
2022-12-07T06:57:21.317Z,100690.03
2022-12-07T06:59:49.552Z,100689.13
2022-12-07T07:02:17.980Z,100688.44
2022-12-07T07:04:46.284Z,100682.41
2022-12-07T07:07:14.410Z,100679.97
2022-12-07T07:09:43.883Z,100689.41
2022-12-07T07:12:12.094Z,100686.56
2022-12-07T07:14:40.294Z,100690.69
2022-12-07T07:17:08.519Z,100695.59
2022-12-07T07:19:37.495Z,100694.53
2022-12-07T07:22:06.361Z,100696.97
2022-12-07T07:24:34.538Z,100697.00
2022-12-07T07:27:03.984Z,100693.66
2022-12-07T07:29:32.182Z,100691.09
2022-12-07T07:32:06.240Z,100699.50
2022-12-07T07:34:35.118Z,100696.84
2022-12-07T07:37:03.348Z,100691.53
2022-12-07T07:39:31.540Z,100690.63
2022-12-07T07:41:59.768Z,100696.66
2022-12-07T07:44:35.057Z,100686.44
2022-12-07T07:47:04.075Z,100683.94
2022-12-07T07:49:32.917Z,100695.91
2022-12-07T07:52:01.191Z,100691.22
2022-12-07T07:54:29.802Z,100693.00
2022-12-07T07:56:57.991Z,100691.50
2022-12-07T07:59:26.876Z,100692.22
2022-12-07T08:01:56.371Z,100687.63
2022-12-07T08:04:24.811Z,100690.88
2022-12-07T08:06:53.234Z,100687.25
2022-12-07T08:09:21.504Z,100693.97
2022-12-07T08:11:49.678Z,100696.69
2022-12-07T08:14:17.836Z,100694.22
2022-12-07T08:16:46.035Z,100699.53
2022-12-07T08:19:15.504Z,100701.28
2022-12-07T08:21:43.849Z,100697.78
2022-12-07T08:24:11.966Z,100697.78
2022-12-07T08:26:40.165Z,100701.19
2022-12-07T08:29:08.458Z,100708.81
2022-12-07T08:31:37.439Z,100696.66
2022-12-07T08:34:05.766Z,100692.28
2022-12-07T08:36:35.283Z,100701.66
2022-12-07T08:41:51.674Z,100695.81
2022-12-07T08:44:19.806Z,100690.72
2022-12-07T08:46:52.592Z,100694.22
2022-12-07T08:49:25.026Z,100684.81
2022-12-07T08:51:54.943Z,100684.13
2022-12-07T08:54:23.753Z,100687.84
2022-12-07T08:56:58.794Z,100684.59
2022-12-07T08:59:29.212Z,100682.06
2022-12-07T09:01:57.664Z,100679.50
2022-12-07T09:04:25.952Z,100684.75
2022-12-07T09:06:56.688Z,100679.78
2022-12-07T09:09:25.035Z,100674.78
2022-12-07T09:11:53.183Z,100673.19
2022-12-07T09:14:21.412Z,100681.81
2022-12-07T09:16:49.547Z,100681.94
2022-12-07T09:19:17.767Z,100682.09
2022-12-07T09:21:46.172Z,100678.81
2022-12-07T09:24:16.069Z,100675.53
2022-12-07T09:26:45.522Z,100679.13
2022-12-07T09:29:13.759Z,100679.47
2022-12-07T09:31:42.703Z,100682.38
2022-12-07T09:34:11.364Z,100673.88
2022-12-07T09:36:39.521Z,100681.78
2022-12-07T09:39:07.769Z,100692.22
2022-12-07T09:41:40.815Z,100681.91
2022-12-07T09:44:13.711Z,100672.50
2022-12-07T09:46:44.916Z,100678.75
2022-12-07T09:49:18.873Z,100678.97
2022-12-07T09:51:47.174Z,100678.25
2022-12-07T09:54:17.455Z,100686.22
2022-12-07T09:56:47.142Z,100682.19
2022-12-07T09:59:20.566Z,100671.19
2022-12-07T10:01:50.408Z,100661.94
2022-12-07T10:04:22.397Z,100662.97
2022-12-07T10:06:52.232Z,100667.41
2022-12-07T10:09:22.989Z,100657.13
2022-12-07T10:12:12.499Z,100653.78
2022-12-07T10:15:10.096Z,100668.56
2022-12-07T10:17:41.947Z,100660.88
2022-12-07T10:20:17.780Z,100672.16
2022-12-07T10:23:05.777Z,100656.72
2022-12-07T10:25:36.069Z,100660.28
2022-12-07T10:28:15.673Z,100652.59
2022-12-07T10:30:54.345Z,100647.47
2022-12-07T10:33:50.496Z,100646.63
2022-12-07T10:36:22.492Z,100638.94
2022-12-07T10:38:52.603Z,100633.84
2022-12-07T10:41:21.349Z,100636.50
2022-12-07T10:43:54.854Z,100636.66
2022-12-07T10:46:56.145Z,100635.00
2022-12-07T10:49:50.791Z,100636.72
2022-12-07T10:52:26.201Z,100627.16
2022-12-07T10:55:07.202Z,100628.00
2022-12-07T10:57:49.663Z,100628.84
2022-12-07T11:00:21.439Z,100627.97
2022-12-07T11:03:07.341Z,100628.94
2022-12-07T11:05:42.902Z,100629.94
2022-12-07T11:08:21.303Z,100626.59
2022-12-07T11:10:56.398Z,100621.38
2022-12-07T11:13:30.955Z,100617.00
2022-12-07T11:16:23.497Z,100624.63
2022-12-07T11:19:07.832Z,100617.66
2022-12-07T11:21:41.273Z,100611.59
2022-12-07T11:24:16.212Z,100607.28
2022-12-07T11:27:00.662Z,100598.66
2022-12-07T11:29:47.525Z,100599.50
2022-12-07T11:32:23.260Z,100595.19
2022-12-07T11:35:07.825Z,100584.81
2022-12-07T11:40:19.343Z,100572.72
2022-12-07T11:42:53.762Z,100568.41
2022-12-07T11:45:28.238Z,100566.69
2022-12-07T11:48:03.003Z,100566.69
2022-12-07T11:50:38.428Z,100565.88
2022-12-07T11:53:16.504Z,100549.47
2022-12-07T11:55:52.598Z,100552.97
2022-12-07T11:58:36.119Z,100551.25
2022-12-07T12:01:16.433Z,100553.03
2022-12-07T12:03:53.025Z,100541.81
2022-12-07T12:06:22.668Z,100545.31
2022-12-07T12:15:09.031Z,100535.75
2022-12-07T12:18:02.673Z,100527.13
2022-12-07T12:20:35.652Z,100524.56
2022-12-07T12:23:13.813Z,100514.16
2022-12-07T12:25:44.867Z,100513.28
2022-12-07T12:28:26.334Z,100512.44
2022-12-07T12:31:32.455Z,100498.66
2022-12-07T12:34:02.919Z,100498.66
2022-12-07T12:36:48.640Z,100502.09
2022-12-07T12:42:07.959Z,100493.50
2022-12-07T12:45:06.243Z,100487.50
2022-12-07T12:47:55.891Z,100483.22
2022-12-07T12:50:28.709Z,100482.31
2022-12-07T12:53:22.093Z,100479.72
2022-12-07T12:56:24.034Z,100483.97
2022-12-07T12:59:23.670Z,100488.28
2022-12-07T13:01:53.336Z,100478.72
2022-12-07T13:04:29.262Z,100477.91
2022-12-07T13:07:54.612Z,100471.84
2022-12-07T13:10:40.509Z,100468.34
2022-12-07T13:13:41.763Z,100467.53
2022-12-07T13:16:47.389Z,100460.66
2022-12-07T13:19:52.860Z,100453.78
2022-12-07T13:22:43.069Z,100445.19
2022-12-07T13:25:14.633Z,100446.06
2022-12-07T13:27:49.342Z,100448.69
2022-12-07T13:30:19.960Z,100443.50
2022-12-07T13:32:55.093Z,100440.03
2022-12-07T13:35:41.920Z,100431.41
2022-12-07T13:38:26.919Z,100423.56
2022-12-07T13:41:21.073Z,100425.31
2022-12-07T13:43:54.980Z,100421.03
2022-12-07T13:46:26.886Z,100413.25
2022-12-07T13:48:56.584Z,100405.47
2022-12-07T13:51:27.237Z,100405.47
2022-12-07T13:53:57.515Z,100408.91
2022-12-07T13:56:33.894Z,100403.72
2022-12-07T13:59:03.752Z,100386.44
2022-12-07T14:01:33.947Z,100389.91
2022-12-07T14:04:20.532Z,100386.44
2022-12-07T14:06:51.965Z,100391.63
2022-12-07T14:09:23.427Z,100395.09
2022-12-07T14:11:54.149Z,100388.13
2022-12-07T14:14:29.516Z,100391.56
2022-12-07T14:17:04.265Z,100386.38
2022-12-07T14:19:53.221Z,100386.38
2022-12-07T14:22:31.276Z,100376.00
2022-12-07T14:25:04.138Z,100375.13
2022-12-07T14:27:37.215Z,100365.59
2022-12-07T14:30:08.192Z,100370.75
2022-12-07T14:32:39.662Z,100360.38
2022-12-07T14:35:13.059Z,100361.22
2022-12-07T14:37:42.681Z,100359.50
2022-12-07T14:40:15.792Z,100356.91
2022-12-07T14:42:45.458Z,100349.13
2022-12-07T14:45:18.405Z,100357.78
2022-12-07T14:50:39.736Z,100362.03
2022-12-07T14:53:33.839Z,100362.03
2022-12-07T14:56:02.246Z,100355.94
2022-12-07T14:58:30.363Z,100359.41
2022-12-07T15:00:59.875Z,100362.00
2022-12-07T15:03:28.161Z,100353.31
2022-12-07T15:05:56.526Z,100355.03
2022-12-07T15:08:24.989Z,100350.75
2022-12-07T15:10:53.279Z,100350.72
2022-12-07T15:13:39.149Z,100353.28
2022-12-07T15:16:13.341Z,100351.50
2022-12-07T15:18:45.433Z,100345.41
2022-12-07T15:21:26.770Z,100347.13
2022-12-07T15:23:55.929Z,100344.50
2022-12-07T15:26:24.191Z,100339.31
2022-12-07T15:28:52.429Z,100344.47
2022-12-07T15:31:53.824Z,100326.31
2022-12-07T15:34:10.138Z,100337.50
2022-12-07T15:36:38.440Z,100334.00
2022-12-07T15:39:14.517Z,100336.53
2022-12-07T15:41:44.378Z,100327.88
2022-12-07T15:44:31.597Z,100337.38
2022-12-07T15:47:02.032Z,100332.16
2022-12-07T15:49:30.482Z,100321.75
2022-12-07T15:51:58.688Z,100319.16
2022-12-07T15:54:29.402Z,100327.78
2022-12-07T15:56:58.411Z,100315.72
2022-12-07T15:59:29.128Z,100313.13
2022-12-07T16:01:57.723Z,100306.22
2022-12-07T16:04:29.244Z,100295.84
2022-12-07T16:06:57.653Z,100297.56
2022-12-07T16:09:26.438Z,100294.94
2022-12-07T16:11:54.870Z,100288.03
2022-12-07T16:14:23.151Z,100290.59
2022-12-07T16:16:51.368Z,100291.44
2022-12-07T16:19:19.612Z,100297.44
2022-12-07T16:21:49.200Z,100297.38
2022-12-07T16:24:17.751Z,100294.72
2022-12-07T16:26:50.140Z,100290.34
2022-12-07T16:29:20.862Z,100289.44
2022-12-07T16:31:49.518Z,100296.31
2022-12-07T16:34:18.632Z,100297.22
2022-12-07T16:37:03.894Z,100285.16
2022-12-07T16:39:33.262Z,100279.13
2022-12-07T16:42:01.512Z,100291.22
2022-12-07T16:44:29.881Z,100284.38
2022-12-07T16:46:58.069Z,100283.50
2022-12-07T16:49:26.408Z,100281.78
2022-12-07T16:52:18.351Z,100284.31
2022-12-07T16:54:44.241Z,100284.28
2022-12-07T16:57:18.148Z,100285.09
2022-12-07T16:59:50.032Z,100286.81
2022-12-07T17:02:18.265Z,100289.34
2022-12-07T17:04:46.480Z,100291.94
2022-12-07T17:07:15.952Z,100297.09
2022-12-07T17:09:44.223Z,100291.94
2022-12-07T17:12:12.445Z,100293.59
2022-12-07T17:14:57.980Z,100284.13
2022-12-07T17:17:26.232Z,100277.25
2022-12-07T17:19:54.372Z,100282.44
2022-12-07T17:22:23.881Z,100281.53
2022-12-07T17:24:51.942Z,100279.88
2022-12-07T17:27:20.231Z,100280.72
2022-12-07T17:29:48.411Z,100272.97
2022-12-07T17:32:16.826Z,100271.19
2022-12-07T17:34:44.962Z,100271.13
2022-12-07T17:37:13.446Z,100270.25
2022-12-07T17:39:42.991Z,100260.69
2022-12-07T17:42:28.890Z,100260.63
2022-12-07T17:44:57.221Z,100256.28
2022-12-07T17:47:25.368Z,100258.84
2022-12-07T17:49:53.844Z,100247.63
2022-12-07T17:52:39.663Z,100250.06
2022-12-07T17:55:09.794Z,100245.69
2022-12-07T17:57:37.991Z,100244.75
2022-12-07T18:00:08.749Z,100239.59
2022-12-07T18:02:40.424Z,100224.03
2022-12-07T18:05:10.032Z,100221.34
2022-12-07T18:07:38.362Z,100218.69
2022-12-07T18:10:09.286Z,100227.31
2022-12-07T18:12:40.454Z,100216.94
2022-12-07T18:15:09.210Z,100218.59
2022-12-07T18:17:37.334Z,100213.34
2022-12-07T18:20:06.652Z,100209.84
2022-12-07T18:22:34.810Z,100209.06
2022-12-07T18:25:03.598Z,100201.31
2022-12-07T18:27:32.050Z,100209.06
2022-12-07T18:30:01.533Z,100212.56
2022-12-07T18:32:31.029Z,100201.47
2022-12-07T18:34:59.658Z,100210.06
2022-12-07T18:37:28.500Z,100210.06
2022-12-07T18:39:58.461Z,100203.09
2022-12-07T18:42:26.671Z,100193.47
2022-12-07T18:44:54.864Z,100190.78
2022-12-07T18:47:24.384Z,100189.00
2022-12-07T18:49:52.632Z,100189.81
2022-12-07T18:52:29.075Z,100186.25
2022-12-07T18:55:01.811Z,100183.56
2022-12-07T18:57:33.515Z,100183.44
2022-12-07T19:00:01.701Z,100186.84
2022-12-07T19:02:31.265Z,100185.03
2022-12-07T19:05:02.663Z,100179.75
2022-12-07T19:07:31.271Z,100172.81
2022-12-07T19:09:59.441Z,100176.97
2022-12-07T19:12:28.457Z,100172.50
2022-12-07T19:14:56.780Z,100169.91
2022-12-07T19:17:24.958Z,100164.66
2022-12-07T19:19:54.611Z,100165.50
2022-12-07T19:22:24.243Z,100171.53
2022-12-07T19:24:54.076Z,100168.88
2022-12-07T19:27:23.443Z,100170.47
2022-12-07T19:29:51.785Z,100167.84
2022-12-07T19:32:20.453Z,100170.47
2022-12-07T19:34:49.301Z,100168.72
2022-12-07T19:37:19.425Z,100161.03
2022-12-07T19:39:51.868Z,100162.09
2022-12-07T19:42:20.740Z,100160.59
2022-12-07T19:44:48.950Z,100153.03
2022-12-07T19:47:17.738Z,100158.19
2022-12-07T19:49:47.134Z,100146.16
2022-12-07T19:52:15.696Z,100145.47
2022-12-07T19:54:45.118Z,100143.03
2022-12-07T19:57:16.149Z,100149.09
2022-12-07T19:59:44.563Z,100138.78
2022-12-07T20:02:14.784Z,100137.06
2022-12-07T20:04:43.294Z,100140.50
2022-12-07T20:07:11.452Z,100127.56
2022-12-07T20:09:39.731Z,100132.66
2022-12-07T20:12:28.583Z,100129.94
2022-12-07T20:14:56.892Z,100121.22
2022-12-07T20:17:25.158Z,100126.34
2022-12-07T20:19:53.445Z,100117.78
2022-12-07T20:22:21.662Z,100120.28
2022-12-07T20:24:49.963Z,100120.28
2022-12-07T20:27:20.263Z,100116.84
2022-12-07T20:29:49.789Z,100118.47
2022-12-07T20:32:17.922Z,100114.94
2022-12-07T20:34:46.943Z,100110.53
2022-12-07T20:37:15.170Z,100111.28
2022-12-07T20:39:43.288Z,100101.63
2022-12-07T20:42:29.572Z,100103.25
2022-12-07T20:45:03.086Z,100093.72
2022-12-07T20:47:31.963Z,100097.19
2022-12-07T20:50:00.141Z,100095.41
2022-12-07T20:52:28.526Z,100100.72
2022-12-07T20:54:56.634Z,100093.97
2022-12-07T20:57:24.843Z,100081.88
2022-12-07T20:59:53.008Z,100086.25
2022-12-07T21:02:22.516Z,100091.50
2022-12-07T21:04:50.671Z,100082.16
2022-12-07T21:07:19.002Z,100078.75
2022-12-07T21:09:47.379Z,100079.75
2022-12-07T21:12:16.418Z,100079.88
2022-12-07T21:14:45.230Z,100080.03
2022-12-07T21:17:13.603Z,100080.13
2022-12-07T21:19:43.031Z,100070.72
2022-12-07T21:22:11.259Z,100070.72
2022-12-07T21:24:39.838Z,100062.06
2022-12-07T21:27:08.976Z,100058.69
2022-12-07T21:29:43.592Z,100060.41
2022-12-07T21:32:12.602Z,100060.41
2022-12-07T21:34:42.932Z,100063.00
2022-12-07T21:37:11.282Z,100057.06
2022-12-07T21:39:39.545Z,100051.13
2022-12-07T21:42:07.728Z,100059.78
2022-12-07T21:44:41.620Z,100046.09
2022-12-07T21:47:12.464Z,100047.09
2022-12-07T21:49:42.088Z,100036.84
2022-12-07T21:52:10.232Z,100043.72
2022-12-07T21:54:40.497Z,100036.91
2022-12-07T21:57:08.581Z,100046.44
2022-12-07T21:59:36.735Z,100041.28
2022-12-07T22:02:04.842Z,100037.81
2022-12-07T22:04:33.080Z,100028.34
2022-12-07T22:07:02.584Z,100025.72
2022-12-07T22:09:30.837Z,100030.06
2022-12-07T22:11:59.130Z,100022.31
2022-12-07T22:14:44.761Z,100022.28
2022-12-07T22:17:12.990Z,100023.13
2022-12-07T22:19:41.100Z,100017.09
2022-12-07T22:22:14.346Z,100016.25
2022-12-07T22:24:42.831Z,100012.75
2022-12-07T22:27:10.989Z,100009.25
2022-12-07T22:29:39.891Z,100012.69
2022-12-07T22:32:31.883Z,100006.66
2022-12-07T22:34:56.882Z,100007.53
2022-12-07T22:37:28.351Z,100009.22
2022-12-07T22:39:56.602Z,100004.91
2022-12-07T22:42:25.349Z,100010.09
2022-12-07T22:44:53.541Z,100004.88
2022-12-07T22:47:21.733Z,99998.84
2022-12-07T22:49:51.454Z,99996.22
2022-12-07T22:52:19.652Z,99996.19
2022-12-07T22:54:49.212Z,99990.97
2022-12-07T22:57:17.343Z,99989.25
2022-12-07T22:59:45.646Z,99985.81
2022-12-07T23:02:13.969Z,99985.81
2022-12-07T23:04:42.295Z,99982.34
2022-12-07T23:07:10.461Z,99983.22
2022-12-07T23:09:38.734Z,99990.06
2022-12-07T23:12:26.108Z,99980.63
2022-12-07T23:14:54.778Z,99978.91
2022-12-07T23:17:22.912Z,99970.19
2022-12-07T23:19:55.541Z,99973.53
2022-12-07T23:22:24.514Z,99973.41
2022-12-07T23:24:52.667Z,99966.44
2022-12-07T23:27:22.222Z,99962.09
2022-12-07T23:29:50.537Z,99957.78
2022-12-07T23:32:18.681Z,99949.13
2022-12-07T23:34:46.851Z,99950.00
2022-12-07T23:37:15.001Z,99943.13
2022-12-07T23:39:43.101Z,99936.28
2022-12-07T23:42:11.331Z,99934.56
2022-12-07T23:44:40.798Z,99944.88
2022-12-07T23:47:08.951Z,99934.56
2022-12-07T23:49:37.173Z,99938.81
2022-12-07T23:52:05.634Z,99939.66
2022-12-07T23:54:33.768Z,99936.16
2022-12-07T23:57:01.984Z,99935.28
2022-12-07T23:59:30.105Z,99937.84
